<?xml version="1.0" encoding="UTF-8"?>
<gpx xmlns="http://www.topografix.com/GPX/1/1" xmlns:gpsies="http://www.gpsies.com/GPX/1/0" creator="GPSies http://www.gpsies.com - Unbenannte Karte" version="1.1" xmlns:xsi="http://www.w3.org/2001/XMLSchema-instance" xsi:schemaLocation="http://www.topografix.com/GPX/1/1 http://www.topografix.com/GPX/1/1/gpx.xsd http://www.gpsies.com/GPX/1/0 http://www.gpsies.com/gpsies.xsd">
  <metadata>
    <name>Unbenannte Karte</name>
    <link href="http://www.gpsies.com/">
      <text>Unbenannte Karte on GPSies.com</text>
    </link>
    <time>2015-07-25T18:58:45Z</time>
  </metadata>
  <trk>
    <name>Unbenannte Karte on GPSies.com</name>
    <trkseg>
      <trkpt lat="47.11225900" lon="9.745317000">
        <ele>0.0000000</ele>
        <time>2010-01-01T00:00:00Z</time>
      </trkpt>
      <trkpt lat="47.11225900" lon="9.745318000">
        <ele>0.0000000</ele>
        <time>2010-01-01T00:00:00Z</time>
      </trkpt>
      <trkpt lat="47.11167300" lon="9.744947700">
        <ele>0.0000000</ele>
        <time>2010-01-01T00:00:25Z</time>
      </trkpt>
      <trkpt lat="47.11137170" lon="9.744891900">
        <ele>0.0000000</ele>
        <time>2010-01-01T00:00:37Z</time>
      </trkpt>
      <trkpt lat="47.11130400" lon="9.745437000">
        <ele>0.0000000</ele>
        <time>2010-01-01T00:00:52Z</time>
      </trkpt>
      <trkpt lat="47.11068200" lon="9.745683000">
        <ele>0.0000000</ele>
        <time>2010-01-01T00:01:18Z</time>
      </trkpt>
      <trkpt lat="47.11065500" lon="9.745740000">
        <ele>0.0000000</ele>
        <time>2010-01-01T00:01:20Z</time>
      </trkpt>
      <trkpt lat="47.11045000" lon="9.746249000">
        <ele>0.0000000</ele>
        <time>2010-01-01T00:01:36Z</time>
      </trkpt>
      <trkpt lat="47.11004900" lon="9.747017000">
        <ele>0.0000000</ele>
        <time>2010-01-01T00:02:02Z</time>
      </trkpt>
      <trkpt lat="47.10918000" lon="9.746672000">
        <ele>0.0000000</ele>
        <time>2010-01-01T00:02:39Z</time>
      </trkpt>
      <trkpt lat="47.10782280" lon="9.745910300">
        <ele>0.0000000</ele>
        <time>2010-01-01T00:03:37Z</time>
      </trkpt>
      <trkpt lat="47.10722500" lon="9.744934100">
        <ele>0.0000000</ele>
        <time>2010-01-01T00:04:12Z</time>
      </trkpt>
      <trkpt lat="47.10681810" lon="9.744869900">
        <ele>0.0000000</ele>
        <time>2010-01-01T00:04:29Z</time>
      </trkpt>
      <trkpt lat="47.10597500" lon="9.744012000">
        <ele>0.0000000</ele>
        <time>2010-01-01T00:05:10Z</time>
      </trkpt>
      <trkpt lat="47.10521100" lon="9.743304000">
        <ele>0.0000000</ele>
        <time>2010-01-01T00:05:46Z</time>
      </trkpt>
      <trkpt lat="47.10456510" lon="9.742737400">
        <ele>0.0000000</ele>
        <time>2010-01-01T00:06:16Z</time>
      </trkpt>
      <trkpt lat="47.10427970" lon="9.742184900">
        <ele>0.0000000</ele>
        <time>2010-01-01T00:06:35Z</time>
      </trkpt>
      <trkpt lat="47.10338100" lon="9.741568000">
        <ele>0.0000000</ele>
        <time>2010-01-01T00:07:15Z</time>
      </trkpt>
      <trkpt lat="47.10316000" lon="9.740821400">
        <ele>0.0000000</ele>
        <time>2010-01-01T00:07:37Z</time>
      </trkpt>
      <trkpt lat="47.10253000" lon="9.739774400">
        <ele>0.0000000</ele>
        <time>2010-01-01T00:08:15Z</time>
      </trkpt>
      <trkpt lat="47.10140000" lon="9.738898000">
        <ele>0.0000000</ele>
        <time>2010-01-01T00:09:06Z</time>
      </trkpt>
      <trkpt lat="47.10083420" lon="9.738345200">
        <ele>0.0000000</ele>
        <time>2010-01-01T00:09:33Z</time>
      </trkpt>
      <trkpt lat="47.09997620" lon="9.737878300">
        <ele>0.0000000</ele>
        <time>2010-01-01T00:10:10Z</time>
      </trkpt>
      <trkpt lat="47.09920590" lon="9.737668900">
        <ele>0.0000000</ele>
        <time>2010-01-01T00:10:41Z</time>
      </trkpt>
      <trkpt lat="47.09849400" lon="9.737717000">
        <ele>0.0000000</ele>
        <time>2010-01-01T00:11:10Z</time>
      </trkpt>
      <trkpt lat="47.09797600" lon="9.737803000">
        <ele>0.0000000</ele>
        <time>2010-01-01T00:11:31Z</time>
      </trkpt>
      <trkpt lat="47.09691400" lon="9.738075000">
        <ele>0.0000000</ele>
        <time>2010-01-01T00:12:14Z</time>
      </trkpt>
      <trkpt lat="47.09612400" lon="9.738127000">
        <ele>0.0000000</ele>
        <time>2010-01-01T00:12:46Z</time>
      </trkpt>
      <trkpt lat="47.09523100" lon="9.737917000">
        <ele>0.0000000</ele>
        <time>2010-01-01T00:13:22Z</time>
      </trkpt>
      <trkpt lat="47.09425560" lon="9.737747500">
        <ele>0.0000000</ele>
        <time>2010-01-01T00:14:01Z</time>
      </trkpt>
      <trkpt lat="47.09330930" lon="9.737492200">
        <ele>0.0000000</ele>
        <time>2010-01-01T00:14:40Z</time>
      </trkpt>
      <trkpt lat="47.09297670" lon="9.737558700">
        <ele>0.0000000</ele>
        <time>2010-01-01T00:14:53Z</time>
      </trkpt>
      <trkpt lat="47.09257670" lon="9.737956700">
        <ele>0.0000000</ele>
        <time>2010-01-01T00:15:12Z</time>
      </trkpt>
      <trkpt lat="47.09056510" lon="9.737361800">
        <ele>0.0000000</ele>
        <time>2010-01-01T00:16:35Z</time>
      </trkpt>
      <trkpt lat="47.08954700" lon="9.737239000">
        <ele>0.0000000</ele>
        <time>2010-01-01T00:17:15Z</time>
      </trkpt>
      <trkpt lat="47.08911100" lon="9.737164000">
        <ele>0.0000000</ele>
        <time>2010-01-01T00:17:33Z</time>
      </trkpt>
      <trkpt lat="47.08867940" lon="9.737128100">
        <ele>0.0000000</ele>
        <time>2010-01-01T00:17:50Z</time>
      </trkpt>
      <trkpt lat="47.08859510" lon="9.736895600">
        <ele>0.0000000</ele>
        <time>2010-01-01T00:17:57Z</time>
      </trkpt>
      <trkpt lat="47.08760500" lon="9.737221000">
        <ele>0.0000000</ele>
        <time>2010-01-01T00:18:38Z</time>
      </trkpt>
      <trkpt lat="47.08695490" lon="9.737191100">
        <ele>0.0000000</ele>
        <time>2010-01-01T00:19:04Z</time>
      </trkpt>
      <trkpt lat="47.08664080" lon="9.736732100">
        <ele>0.0000000</ele>
        <time>2010-01-01T00:19:22Z</time>
      </trkpt>
      <trkpt lat="47.08704190" lon="9.735907400">
        <ele>0.0000000</ele>
        <time>2010-01-01T00:19:49Z</time>
      </trkpt>
      <trkpt lat="47.08767680" lon="9.735211400">
        <ele>0.0000000</ele>
        <time>2010-01-01T00:20:21Z</time>
      </trkpt>
      <trkpt lat="47.08779400" lon="9.734854000">
        <ele>0.0000000</ele>
        <time>2010-01-01T00:20:32Z</time>
      </trkpt>
      <trkpt lat="47.08781900" lon="9.734863000">
        <ele>0.0000000</ele>
        <time>2010-01-01T00:20:33Z</time>
      </trkpt>
      <trkpt lat="47.08777400" lon="9.734839000">
        <ele>0.0000000</ele>
        <time>2010-01-01T00:20:35Z</time>
      </trkpt>
      <trkpt lat="47.08907000" lon="9.734941000">
        <ele>0.0000000</ele>
        <time>2010-01-01T00:21:27Z</time>
      </trkpt>
      <trkpt lat="47.09004980" lon="9.734805600">
        <ele>0.0000000</ele>
        <time>2010-01-01T00:22:06Z</time>
      </trkpt>
      <trkpt lat="47.09094200" lon="9.735271000">
        <ele>0.0000000</ele>
        <time>2010-01-01T00:22:44Z</time>
      </trkpt>
      <trkpt lat="47.09134740" lon="9.735251700">
        <ele>0.0000000</ele>
        <time>2010-01-01T00:23:00Z</time>
      </trkpt>
      <trkpt lat="47.09162130" lon="9.735747400">
        <ele>0.0000000</ele>
        <time>2010-01-01T00:23:18Z</time>
      </trkpt>
      <trkpt lat="47.09472570" lon="9.735794700">
        <ele>0.0000000</ele>
        <time>2010-01-01T00:25:22Z</time>
      </trkpt>
      <trkpt lat="47.09629610" lon="9.735756100">
        <ele>0.0000000</ele>
        <time>2010-01-01T00:26:25Z</time>
      </trkpt>
      <trkpt lat="47.09766560" lon="9.735329100">
        <ele>0.0000000</ele>
        <time>2010-01-01T00:27:21Z</time>
      </trkpt>
      <trkpt lat="47.09810030" lon="9.735202500">
        <ele>0.0000000</ele>
        <time>2010-01-01T00:27:39Z</time>
      </trkpt>
      <trkpt lat="47.10030640" lon="9.736455800">
        <ele>0.0000000</ele>
        <time>2010-01-01T00:29:13Z</time>
      </trkpt>
      <trkpt lat="47.10124140" lon="9.736513900">
        <ele>0.0000000</ele>
        <time>2010-01-01T00:29:51Z</time>
      </trkpt>
      <trkpt lat="47.10232260" lon="9.736400300">
        <ele>0.0000000</ele>
        <time>2010-01-01T00:30:34Z</time>
      </trkpt>
      <trkpt lat="47.10318330" lon="9.737006000">
        <ele>0.0000000</ele>
        <time>2010-01-01T00:31:13Z</time>
      </trkpt>
      <trkpt lat="47.10353270" lon="9.737762100">
        <ele>0.0000000</ele>
        <time>2010-01-01T00:31:37Z</time>
      </trkpt>
      <trkpt lat="47.10391140" lon="9.738925800">
        <ele>0.0000000</ele>
        <time>2010-01-01T00:32:13Z</time>
      </trkpt>
      <trkpt lat="47.10469900" lon="9.739875000">
        <ele>0.0000000</ele>
        <time>2010-01-01T00:32:53Z</time>
      </trkpt>
      <trkpt lat="47.10496700" lon="9.740109000">
        <ele>0.0000000</ele>
        <time>2010-01-01T00:33:06Z</time>
      </trkpt>
      <trkpt lat="47.10495900" lon="9.740134000">
        <ele>0.0000000</ele>
        <time>2010-01-01T00:33:07Z</time>
      </trkpt>
      <trkpt lat="47.10496100" lon="9.740121000">
        <ele>0.0000000</ele>
        <time>2010-01-01T00:33:07Z</time>
      </trkpt>
      <trkpt lat="47.10573100" lon="9.741435000">
        <ele>0.0000000</ele>
        <time>2010-01-01T00:33:54Z</time>
      </trkpt>
      <trkpt lat="47.10768200" lon="9.742183000">
        <ele>0.0000000</ele>
        <time>2010-01-01T00:35:15Z</time>
      </trkpt>
      <trkpt lat="47.10807100" lon="9.742233000">
        <ele>0.0000000</ele>
        <time>2010-01-01T00:35:31Z</time>
      </trkpt>
      <trkpt lat="47.10869840" lon="9.742839000">
        <ele>0.0000000</ele>
        <time>2010-01-01T00:36:01Z</time>
      </trkpt>
      <trkpt lat="47.11206730" lon="9.745091100">
        <ele>0.0000000</ele>
        <time>2010-01-01T00:38:29Z</time>
      </trkpt>
    </trkseg>
  </trk>
</gpx>

